sensor_id;sensor_type;location;lat;lon;timestamp;pressure;altitude;pressure_sealevel;temperature;humidity
48015;BME280;33780;51.034;7.120;2023-05-08T00:01:44;101146.25;;;17.89;76.40
48015;BME280;33780;51.034;7.120;2023-05-08T00:04:10;101144.56;;;17.88;76.28
48015;BME280;33780;51.034;7.120;2023-05-08T00:06:35;101147.44;;;17.87;76.14
48015;BME280;33780;51.034;7.120;2023-05-08T00:09:00;101143.03;;;17.86;76.35
48015;BME280;33780;51.034;7.120;2023-05-08T00:11:26;101152.19;;;17.85;76.46
48015;BME280;33780;51.034;7.120;2023-05-08T00:13:51;101155.91;;;17.84;76.30
48015;BME280;33780;51.034;7.120;2023-05-08T00:16:16;101156.06;;;17.82;76.40
48015;BME280;33780;51.034;7.120;2023-05-08T00:18:42;101160.81;;;17.80;75.85
48015;BME280;33780;51.034;7.120;2023-05-08T00:21:07;101156.41;;;17.79;76.39
48015;BME280;33780;51.034;7.120;2023-05-08T00:23:33;101157.44;;;17.78;76.47
48015;BME280;33780;51.034;7.120;2023-05-08T00:25:58;101156.72;;;17.76;76.05
48015;BME280;33780;51.034;7.120;2023-05-08T00:28:23;101159.59;;;17.74;76.11
48015;BME280;33780;51.034;7.120;2023-05-08T00:30:49;101160.44;;;17.75;76.47
48015;BME280;33780;51.034;7.120;2023-05-08T00:33:14;101169.75;;;17.72;76.42
48015;BME280;33780;51.034;7.120;2023-05-08T00:35:40;101169.94;;;17.71;76.48
48015;BME280;33780;51.034;7.120;2023-05-08T00:38:07;101176.34;;;17.70;76.52
48015;BME280;33780;51.034;7.120;2023-05-08T00:40:32;101172.81;;;17.69;76.56
48015;BME280;33780;51.034;7.120;2023-05-08T00:42:57;101172.81;;;17.69;76.43
48015;BME280;33780;51.034;7.120;2023-05-08T00:45:23;101170.09;;;17.69;76.43
48015;BME280;33780;51.034;7.120;2023-05-08T00:47:48;101167.38;;;17.69;76.19
48015;BME280;33780;51.034;7.120;2023-05-08T00:50:14;101178.38;;;17.68;76.55
48015;BME280;33780;51.034;7.120;2023-05-08T00:52:40;101165.84;;;17.67;76.45
48015;BME280;33780;51.034;7.120;2023-05-08T00:55:05;101174.13;;;17.65;76.38
48015;BME280;33780;51.034;7.120;2023-05-08T00:57:32;101177.69;;;17.66;76.61
48015;BME280;33780;51.034;7.120;2023-05-08T01:00:00;101179.72;;;17.64;76.58
48015;BME280;33780;51.034;7.120;2023-05-08T01:02:26;101178.03;;;17.63;76.62
48015;BME280;33780;51.034;7.120;2023-05-08T01:04:52;101179.03;;;17.62;76.35
48015;BME280;33780;51.034;7.120;2023-05-08T01:07:19;101187.31;;;17.60;76.70
48015;BME280;33780;51.034;7.120;2023-05-08T01:09:45;101179.19;;;17.60;76.72
48015;BME280;33780;51.034;7.120;2023-05-08T01:12:28;101175.78;;;17.58;76.81
48015;BME280;33780;51.034;7.120;2023-05-08T01:17:37;101169.69;;;17.56;76.68
48015;BME280;33780;51.034;7.120;2023-05-08T01:20:17;101174.25;;;17.56;76.49
48015;BME280;33780;51.034;7.120;2023-05-08T01:26:19;101170.19;;;17.51;76.59
48015;BME280;33780;51.034;7.120;2023-05-08T01:28:59;101167.00;;;17.48;76.37
48015;BME280;33780;51.034;7.120;2023-05-08T01:31:58;101174.44;;;17.46;76.84
48015;BME280;33780;51.034;7.120;2023-05-08T01:34:25;101171.03;;;17.44;76.49
48015;BME280;33780;51.034;7.120;2023-05-08T01:37:08;101172.06;;;17.43;76.56
48015;BME280;33780;51.034;7.120;2023-05-08T01:44:55;101174.38;;;17.38;77.05
48015;BME280;33780;51.034;7.120;2023-05-08T01:47:25;101179.13;;;17.36;76.97
48015;BME280;33780;51.034;7.120;2023-05-08T01:50:12;101192.81;;;17.34;76.80
48015;BME280;33780;51.034;7.120;2023-05-08T01:52:44;101183.84;;;17.34;76.79
48015;BME280;33780;51.034;7.120;2023-05-08T01:55:13;101186.03;;;17.30;77.41
48015;BME280;33780;51.034;7.120;2023-05-08T01:57:46;101192.47;;;17.29;76.85
48015;BME280;33780;51.034;7.120;2023-05-08T02:00:16;101201.75;;;17.27;77.09
48015;BME280;33780;51.034;7.120;2023-05-08T02:02:43;101199.38;;;17.24;77.06
48015;BME280;33780;51.034;7.120;2023-05-08T02:05:13;101196.69;;;17.24;77.06
48015;BME280;33780;51.034;7.120;2023-05-08T02:07:39;101192.13;;;17.24;76.98
48015;BME280;33780;51.034;7.120;2023-05-08T02:10:07;101194.97;;;17.22;76.86
48015;BME280;33780;51.034;7.120;2023-05-08T02:12:35;101196.81;;;17.22;77.00
48015;BME280;33780;51.034;7.120;2023-05-08T02:15:03;101192.41;;;17.21;77.07
48015;BME280;33780;51.034;7.120;2023-05-08T02:17:30;101198.84;;;17.20;77.22
48015;BME280;33780;51.034;7.120;2023-05-08T02:19:57;101209.66;;;17.20;76.86
48015;BME280;33780;51.034;7.120;2023-05-08T02:22:24;101207.97;;;17.19;76.94
48015;BME280;33780;51.034;7.120;2023-05-08T02:24:52;101207.97;;;17.19;76.73
48015;BME280;33780;51.034;7.120;2023-05-08T02:27:24;101204.41;;;17.18;77.23
48015;BME280;33780;51.034;7.120;2023-05-08T02:29:50;101199.16;;;17.17;76.99
48015;BME280;33780;51.034;7.120;2023-05-08T02:32:17;101201.03;;;17.16;77.15
48015;BME280;33780;51.034;7.120;2023-05-08T02:34:44;101206.44;;;17.16;76.76
48015;BME280;33780;51.034;7.120;2023-05-08T02:37:10;101208.47;;;17.14;77.00
48015;BME280;33780;51.034;7.120;2023-05-08T02:39:37;101207.63;;;17.14;77.22
48015;BME280;33780;51.034;7.120;2023-05-08T02:42:04;101207.78;;;17.12;77.19
48015;BME280;33780;51.034;7.120;2023-05-08T02:44:29;101215.91;;;17.12;77.15
48015;BME280;33780;51.034;7.120;2023-05-08T02:49:53;101220.63;;;17.10;77.23
48015;BME280;33780;51.034;7.120;2023-05-08T02:52:27;101225.19;;;17.10;77.65
48015;BME280;33780;51.034;7.120;2023-05-08T02:58:04;101223.81;;;17.06;77.19
48015;BME280;33780;51.034;7.120;2023-05-08T03:00:52;101221.25;;;17.04;77.19
48015;BME280;33780;51.034;7.120;2023-05-08T03:03:23;101222.25;;;17.03;77.31
48015;BME280;33780;51.034;7.120;2023-05-08T03:05:55;101219.72;;;17.02;77.24
48015;BME280;33780;51.034;7.120;2023-05-08T03:08:33;101220.72;;;17.01;76.95
48015;BME280;33780;51.034;7.120;2023-05-08T03:11:03;101219.88;;;17.00;77.45
48015;BME280;33780;51.034;7.120;2023-05-08T03:13:31;101225.28;;;17.00;77.38
48015;BME280;33780;51.034;7.120;2023-05-08T03:16:00;101220.91;;;16.99;77.18
48015;BME280;33780;51.034;7.120;2023-05-08T03:18:31;101218.34;;;16.98;77.26
48015;BME280;33780;51.034;7.120;2023-05-08T03:20:59;101218.34;;;16.98;77.35
48015;BME280;33780;51.034;7.120;2023-05-08T03:23:29;101214.13;;;16.95;77.45
48015;BME280;33780;51.034;7.120;2023-05-08T03:25:57;101219.69;;;16.94;77.43
48015;BME280;33780;51.034;7.120;2023-05-08T03:28:23;101217.16;;;16.92;77.01
48015;BME280;33780;51.034;7.120;2023-05-08T03:30:54;101222.72;;;16.90;77.26
48015;BME280;33780;51.034;7.120;2023-05-08T03:33:22;101219.16;;;16.90;77.45
48015;BME280;33780;51.034;7.120;2023-05-08T03:35:48;101223.91;;;16.88;77.17
48015;BME280;33780;51.034;7.120;2023-05-08T03:38:15;101221.31;;;16.86;77.25
48015;BME280;33780;51.034;7.120;2023-05-08T03:40:41;101219.63;;;16.85;77.31
48015;BME280;33780;51.034;7.120;2023-05-08T03:43:07;101229.59;;;16.85;77.52
48015;BME280;33780;51.034;7.120;2023-05-08T03:45:37;101228.06;;;16.82;77.66
48015;BME280;33780;51.034;7.120;2023-05-08T03:48:04;101217.41;;;16.81;77.58
48015;BME280;33780;51.034;7.120;2023-05-08T03:50:31;101222.97;;;16.79;77.53
48015;BME280;33780;51.034;7.120;2023-05-08T03:52:57;101225.84;;;16.78;77.43
48015;BME280;33780;51.034;7.120;2023-05-08T03:55:23;101216.03;;;16.77;77.72
48015;BME280;33780;51.034;7.120;2023-05-08T03:58:10;101211.66;;;16.76;77.78
48015;BME280;33780;51.034;7.120;2023-05-08T04:03:20;101209.09;;;16.74;77.33
48015;BME280;33780;51.034;7.120;2023-05-08T04:05:58;101203.69;;;16.74;77.50
48015;BME280;33780;51.034;7.120;2023-05-08T04:08:27;101208.25;;;16.74;77.56
48015;BME280;33780;51.034;7.120;2023-05-08T04:10:58;101203.19;;;16.71;77.48
48015;BME280;33780;51.034;7.120;2023-05-08T04:13:30;101208.03;;;16.67;77.75
48015;BME280;33780;51.034;7.120;2023-05-08T04:16:10;101215.28;;;16.67;77.49
48015;BME280;33780;51.034;7.120;2023-05-08T04:18:43;101209.00;;;16.66;77.24
48015;BME280;33780;51.034;7.120;2023-05-08T04:21:10;101211.72;;;16.66;77.16
48015;BME280;33780;51.034;7.120;2023-05-08T04:23:41;101218.00;;;16.67;77.45
48015;BME280;33780;51.034;7.120;2023-05-08T04:26:09;101222.53;;;16.66;77.15
48015;BME280;33780;51.034;7.120;2023-05-08T04:28:35;101220.69;;;16.67;77.22
48015;BME280;33780;51.034;7.120;2023-05-08T04:31:02;101224.25;;;16.67;77.21
48015;BME280;33780;51.034;7.120;2023-05-08T04:33:29;101235.91;;;16.68;77.23
48015;BME280;33780;51.034;7.120;2023-05-08T04:35:55;101232.34;;;16.67;77.33
48015;BME280;33780;51.034;7.120;2023-05-08T04:38:20;101236.03;;;16.66;77.39
48015;BME280;33780;51.034;7.120;2023-05-08T04:40:45;101241.44;;;16.66;77.22
48015;BME280;33780;51.034;7.120;2023-05-08T04:43:11;101238.72;;;16.66;77.04
48015;BME280;33780;51.034;7.120;2023-05-08T04:45:36;101240.59;;;16.66;77.54
48015;BME280;33780;51.034;7.120;2023-05-08T04:48:02;101234.34;;;16.65;77.56
48015;BME280;33780;51.034;7.120;2023-05-08T04:50:27;101242.44;;;16.65;77.54
48015;BME280;33780;51.034;7.120;2023-05-08T04:52:52;101230.63;;;16.66;77.53
48015;BME280;33780;51.034;7.120;2023-05-08T04:55:18;101243.28;;;16.66;77.46
48015;BME280;33780;51.034;7.120;2023-05-08T04:57:43;101236.03;;;16.66;77.51
48015;BME280;33780;51.034;7.120;2023-05-08T05:00:16;101242.31;;;16.67;77.30
48015;BME280;33780;51.034;7.120;2023-05-08T05:02:41;101243.16;;;16.67;77.55
48015;BME280;33780;51.034;7.120;2023-05-08T05:05:16;101245.03;;;16.67;77.60
48015;BME280;33780;51.034;7.120;2023-05-08T05:07:41;101243.16;;;16.67;77.46
48015;BME280;33780;51.034;7.120;2023-05-08T05:10:07;101251.28;;;16.67;77.70
48015;BME280;33780;51.034;7.120;2023-05-08T05:12:38;101250.44;;;16.67;77.81
48015;BME280;33780;51.034;7.120;2023-05-08T05:15:04;101246.84;;;16.66;77.54
48015;BME280;33780;51.034;7.120;2023-05-08T05:17:29;101243.16;;;16.67;77.93
48015;BME280;33780;51.034;7.120;2023-05-08T05:20:00;101252.25;;;16.66;77.82
48015;BME280;33780;51.034;7.120;2023-05-08T05:22:26;101258.38;;;16.68;77.54
48015;BME280;33780;51.034;7.120;2023-05-08T05:24:52;101256.50;;;16.69;77.54
48015;BME280;33780;51.034;7.120;2023-05-08T05:27:26;101253.81;;;16.69;77.24
48015;BME280;33780;51.034;7.120;2023-05-08T05:29:55;101266.34;;;16.70;77.20
48015;BME280;33780;51.034;7.120;2023-05-08T05:32:26;101265.34;;;16.71;77.22
48015;BME280;33780;51.034;7.120;2023-05-08T05:35:20;101260.78;;;16.71;77.04
48015;BME280;33780;51.034;7.120;2023-05-08T05:37:53;101263.31;;;16.73;76.89
48015;BME280;33780;51.034;7.120;2023-05-08T05:40:18;101272.28;;;16.73;77.07
48015;BME280;33780;51.034;7.120;2023-05-08T05:42:50;101274.81;;;16.75;77.00
48015;BME280;33780;51.034;7.120;2023-05-08T05:45:15;101271.13;;;16.76;77.15
48015;BME280;33780;51.034;7.120;2023-05-08T05:47:45;101279.06;;;16.77;77.06
48015;BME280;33780;51.034;7.120;2023-05-08T05:50:22;101277.22;;;16.78;76.87
48015;BME280;33780;51.034;7.120;2023-05-08T05:52:48;101278.06;;;16.78;76.76
48015;BME280;33780;51.034;7.120;2023-05-08T05:55:14;101281.44;;;16.80;76.93
48015;BME280;33780;51.034;7.120;2023-05-08T06:01:16;101284.34;;;16.87;76.81
48015;BME280;33780;51.034;7.120;2023-05-08T06:03:42;101288.63;;;16.89;76.83
48015;BME280;33780;51.034;7.120;2023-05-08T06:06:21;101297.41;;;16.91;76.80
48015;BME280;33780;51.034;7.120;2023-05-08T06:08:46;101290.00;;;16.94;76.74
48015;BME280;33780;51.034;7.120;2023-05-08T06:11:12;101288.81;;;16.96;76.75
48015;BME280;33780;51.034;7.120;2023-05-08T06:13:46;101287.97;;;16.96;76.28
48015;BME280;33780;51.034;7.120;2023-05-08T06:16:12;101286.28;;;16.95;76.43
48015;BME280;33780;51.034;7.120;2023-05-08T06:18:37;101296.09;;;16.96;76.39
48015;BME280;33780;51.034;7.120;2023-05-08T06:21:03;101291.69;;;16.95;76.48
48015;BME280;33780;51.034;7.120;2023-05-08T06:23:28;101292.53;;;16.95;76.55
48015;BME280;33780;51.034;7.120;2023-05-08T06:25:53;101292.53;;;16.95;76.51
48015;BME280;33780;51.034;7.120;2023-05-08T06:28:19;101297.94;;;16.95;76.22
48015;BME280;33780;51.034;7.120;2023-05-08T06:30:46;101294.38;;;16.95;76.54
48015;BME280;33780;51.034;7.120;2023-05-08T06:33:11;101302.34;;;16.96;76.68
48015;BME280;33780;51.034;7.120;2023-05-08T06:35:37;101305.72;;;16.98;76.65
48015;BME280;33780;51.034;7.120;2023-05-08T06:38:04;101302.00;;;16.99;76.59
48015;BME280;33780;51.034;7.120;2023-05-08T06:40:29;101301.00;;;17.00;76.64
48015;BME280;33780;51.034;7.120;2023-05-08T06:42:54;101304.22;;;17.04;76.63
48015;BME280;33780;51.034;7.120;2023-05-08T06:45:20;101300.38;;;17.06;76.53
48015;BME280;33780;51.034;7.120;2023-05-08T06:47:45;101297.69;;;17.06;76.51
48015;BME280;33780;51.034;7.120;2023-05-08T06:50:10;101305.63;;;17.08;76.32
48015;BME280;33780;51.034;7.120;2023-05-08T06:52:36;101310.03;;;17.09;76.08
48015;BME280;33780;51.034;7.120;2023-05-08T06:55:01;101303.63;;;17.10;76.32
48015;BME280;33780;51.034;7.120;2023-05-08T06:57:27;101302.28;;;17.14;76.16
48015;BME280;33780;51.034;7.120;2023-05-08T06:59:54;101303.81;;;17.16;76.03
48015;BME280;33780;51.034;7.120;2023-05-08T07:02:20;101301.94;;;17.17;75.85
48015;BME280;33780;51.034;7.120;2023-05-08T07:04:45;101298.56;;;17.15;75.80
48015;BME280;33780;51.034;7.120;2023-05-08T07:07:17;101298.56;;;17.15;76.02
48015;BME280;33780;51.034;7.120;2023-05-08T07:09:42;101300.25;;;17.16;75.74
48015;BME280;33780;51.034;7.120;2023-05-08T07:12:07;101298.41;;;17.16;75.60
48015;BME280;33780;51.034;7.120;2023-05-08T07:14:33;101299.94;;;17.19;75.47
48015;BME280;33780;51.034;7.120;2023-05-08T07:17:02;101293.50;;;17.20;75.63
48015;BME280;33780;51.034;7.120;2023-05-08T07:19:30;101283.69;;;17.19;75.40
48015;BME280;33780;51.034;7.120;2023-05-08T07:21:56;101285.41;;;17.20;75.49
48015;BME280;33780;51.034;7.120;2023-05-08T07:24:21;101281.69;;;17.21;75.51
48015;BME280;33780;51.034;7.120;2023-05-08T07:26:47;101290.34;;;17.25;75.38
48015;BME280;33780;51.034;7.120;2023-05-08T07:29:12;101292.72;;;17.28;74.94
48015;BME280;33780;51.034;7.120;2023-05-08T07:31:40;101300.69;;;17.29;75.01
48015;BME280;33780;51.034;7.120;2023-05-08T07:34:06;101306.78;;;17.31;75.29
48015;BME280;33780;51.034;7.120;2023-05-08T07:36:31;101303.22;;;17.31;75.85
48015;BME280;33780;51.034;7.120;2023-05-08T07:38:56;101307.28;;;17.35;75.90
48015;BME280;33780;51.034;7.120;2023-05-08T07:41:22;101312.22;;;17.39;75.58
48015;BME280;33780;51.034;7.120;2023-05-08T07:43:47;101318.00;;;17.44;76.08
48015;BME280;33780;51.034;7.120;2023-05-08T07:46:16;101316.66;;;17.48;75.49
48015;BME280;33780;51.034;7.120;2023-05-08T07:48:42;101317.03;;;17.53;75.55
48015;BME280;33780;51.034;7.120;2023-05-08T07:51:07;101309.75;;;17.54;75.10
48015;BME280;33780;51.034;7.120;2023-05-08T07:53:35;101311.13;;;17.58;74.94
48015;BME280;33780;51.034;7.120;2023-05-08T07:56:00;101313.69;;;17.60;74.55
48015;BME280;33780;51.034;7.120;2023-05-08T07:58:25;101318.78;;;17.63;74.80
48015;BME280;33780;51.034;7.120;2023-05-08T08:00:51;101320.97;;;17.67;74.55
48015;BME280;33780;51.034;7.120;2023-05-08T08:03:16;101318.81;;;17.71;74.48
48015;BME280;33780;51.034;7.120;2023-05-08T08:05:41;101317.63;;;17.73;74.47
48015;BME280;33780;51.034;7.120;2023-05-08T08:08:07;101322.03;;;17.74;74.18
48015;BME280;33780;51.034;7.120;2023-05-08T08:10:32;101326.28;;;17.77;74.53
48015;BME280;33780;51.034;7.120;2023-05-08T08:12:58;101327.00;;;17.79;74.56
48015;BME280;33780;51.034;7.120;2023-05-08T08:15:25;101330.22;;;17.83;74.35
48015;BME280;33780;51.034;7.120;2023-05-08T08:17:52;101329.03;;;17.85;74.43
48015;BME280;33780;51.034;7.120;2023-05-08T08:20:18;101332.09;;;17.90;74.45
48015;BME280;33780;51.034;7.120;2023-05-08T08:22:43;101335.31;;;17.94;73.99
48015;BME280;33780;51.034;7.120;2023-05-08T08:25:09;101330.44;;;17.97;74.21
48015;BME280;33780;51.034;7.120;2023-05-08T08:27:34;101333.50;;;18.02;73.96
48015;BME280;33780;51.034;7.120;2023-05-08T08:29:59;101335.69;;;18.07;74.19
48015;BME280;33780;51.034;7.120;2023-05-08T08:32:25;101334.34;;;18.11;74.51
48015;BME280;33780;51.034;7.120;2023-05-08T08:34:50;101329.28;;;18.16;74.39
48015;BME280;33780;51.034;7.120;2023-05-08T08:37:15;101328.78;;;18.21;74.33
48015;BME280;33780;51.034;7.120;2023-05-08T08:39:41;101327.44;;;18.25;74.25
48015;BME280;33780;51.034;7.120;2023-05-08T08:42:06;101321.84;;;18.26;73.79
48015;BME280;33780;51.034;7.120;2023-05-08T08:44:31;101327.94;;;18.28;74.25
48015;BME280;33780;51.034;7.120;2023-05-08T08:46:57;101318.78;;;18.29;73.54
48015;BME280;33780;51.034;7.120;2023-05-08T08:49:29;101326.75;;;18.31;73.71
48015;BME280;33780;51.034;7.120;2023-05-08T08:52:02;101325.59;;;18.33;73.62
48015;BME280;33780;51.034;7.120;2023-05-08T08:54:32;101321.69;;;18.36;73.84
48015;BME280;33780;51.034;7.120;2023-05-08T08:57:00;101322.56;;;18.36;73.53
48015;BME280;33780;51.034;7.120;2023-05-08T08:59:28;101327.81;;;18.38;73.51
48015;BME280;33780;51.034;7.120;2023-05-08T09:02:00;101322.03;;;18.41;73.40
48015;BME280;33780;51.034;7.120;2023-05-08T09:04:29;101329.81;;;18.44;72.90
48015;BME280;33780;51.034;7.120;2023-05-08T09:06:55;101319.66;;;18.46;72.83
48015;BME280;33780;51.034;7.120;2023-05-08T09:09:22;101321.19;;;18.49;72.75
48015;BME280;33780;51.034;7.120;2023-05-08T09:11:47;101325.28;;;18.53;72.91
48015;BME280;33780;51.034;7.120;2023-05-08T09:14:13;101324.75;;;18.57;73.11
48015;BME280;33780;51.034;7.120;2023-05-08T09:16:38;101325.28;;;18.61;73.15
48015;BME280;33780;51.034;7.120;2023-05-08T09:19:04;101322.25;;;18.64;72.70
48015;BME280;33780;51.034;7.120;2023-05-08T09:21:29;101329.03;;;18.68;72.86
48015;BME280;33780;51.034;7.120;2023-05-08T09:24:00;101320.91;;;18.68;72.30
48015;BME280;33780;51.034;7.120;2023-05-08T09:26:32;101320.91;;;18.68;72.23
48015;BME280;33780;51.034;7.120;2023-05-08T09:29:15;101321.06;;;18.66;72.23
48015;BME280;33780;51.034;7.120;2023-05-08T09:31:43;101324.47;;;18.68;72.28
48015;BME280;33780;51.034;7.120;2023-05-08T09:34:12;101323.28;;;18.71;72.12
48015;BME280;33780;51.034;7.120;2023-05-08T09:36:57;101326.66;;;18.73;72.21
48015;BME280;33780;51.034;7.120;2023-05-08T09:39:53;101323.94;;;18.73;72.24
48015;BME280;33780;51.034;7.120;2023-05-08T09:42:21;101325.66;;;18.74;72.43
48015;BME280;33780;51.034;7.120;2023-05-08T09:44:51;101329.88;;;18.77;72.29
48015;BME280;33780;51.034;7.120;2023-05-08T09:47:21;101326.81;;;18.80;72.35
48015;BME280;33780;51.034;7.120;2023-05-08T09:50:01;101331.72;;;18.84;72.14
48015;BME280;33780;51.034;7.120;2023-05-08T09:52:34;101332.25;;;18.88;71.81
48015;BME280;33780;51.034;7.120;2023-05-08T09:55:12;101331.06;;;18.90;71.89
48015;BME280;33780;51.034;7.120;2023-05-08T09:57:50;101330.03;;;18.91;71.88
48015;BME280;33780;51.034;7.120;2023-05-08T10:03:20;101330.88;;;18.92;71.43
48015;BME280;33780;51.034;7.120;2023-05-08T10:06:17;101340.72;;;18.93;71.62
48015;BME280;33780;51.034;7.120;2023-05-08T10:09:27;101332.22;;;18.96;71.75
48015;BME280;33780;51.034;7.120;2023-05-08T10:12:26;101334.78;;;18.97;71.70
48015;BME280;33780;51.034;7.120;2023-05-08T10:14:52;101340.03;;;18.99;71.59
48015;BME280;33780;51.034;7.120;2023-05-08T10:17:49;101332.72;;;18.99;71.48
48015;BME280;33780;51.034;7.120;2023-05-08T10:20:27;101331.22;;;18.97;71.65
48015;BME280;33780;51.034;7.120;2023-05-08T10:22:55;101328.31;;;18.98;71.61
48015;BME280;33780;51.034;7.120;2023-05-08T10:25:21;101333.75;;;18.98;71.49
48015;BME280;33780;51.034;7.120;2023-05-08T10:30:49;101325.63;;;18.98;71.56
48015;BME280;33780;51.034;7.120;2023-05-08T10:33:32;101320.19;;;18.98;71.41
48015;BME280;33780;51.034;7.120;2023-05-08T10:36:14;101319.50;;;18.96;71.34
48015;BME280;33780;51.034;7.120;2023-05-08T10:38:56;101310.88;;;18.93;71.19
48015;BME280;33780;51.034;7.120;2023-05-08T10:41:25;101312.75;;;18.92;71.59
48015;BME280;33780;51.034;7.120;2023-05-08T10:43:58;101306.31;;;18.93;71.67
48015;BME280;33780;51.034;7.120;2023-05-08T10:49:46;101307.81;;;18.96;71.88
48015;BME280;33780;51.034;7.120;2023-05-08T10:52:36;101308.31;;;18.99;71.94
48015;BME280;33780;51.034;7.120;2023-05-08T10:55:31;101306.44;;;19.00;71.52
48015;BME280;33780;51.034;7.120;2023-05-08T11:03:31;101302.03;;;18.99;71.48
48015;BME280;33780;51.034;7.120;2023-05-08T11:06:11;101311.38;;;18.96;71.33
48015;BME280;33780;51.034;7.120;2023-05-08T11:08:50;101308.00;;;18.94;71.31
48015;BME280;33780;51.034;7.120;2023-05-08T11:11:31;101305.28;;;18.94;71.26
48015;BME280;33780;51.034;7.120;2023-05-08T11:17:09;101303.75;;;18.92;71.26
48015;BME280;33780;51.034;7.120;2023-05-08T11:20:07;101301.22;;;18.90;71.25
48015;BME280;33780;51.034;7.120;2023-05-08T11:22:38;101305.97;;;18.88;71.49
48015;BME280;33780;51.034;7.120;2023-05-08T11:25:14;101316.66;;;18.82;71.43
48015;BME280;33780;51.034;7.120;2023-05-08T11:30:39;101311.41;;;18.72;71.66
48015;BME280;33780;51.034;7.120;2023-05-08T11:36:15;101303.41;;;18.62;71.96
48015;BME280;33780;51.034;7.120;2023-05-08T11:39:07;101300.19;;;18.59;72.74
48015;BME280;33780;51.034;7.120;2023-05-08T11:41:37;101297.66;;;18.57;72.70
48015;BME280;33780;51.034;7.120;2023-05-08T11:46:59;101295.78;;;18.58;73.16
48015;BME280;33780;51.034;7.120;2023-05-08T11:49:46;101299.34;;;18.58;73.11
48015;BME280;33780;51.034;7.120;2023-05-08T11:52:17;101299.19;;;18.60;72.95
48015;BME280;33780;51.034;7.120;2023-05-08T11:54:52;101290.03;;;18.61;73.07
48015;BME280;33780;51.034;7.120;2023-05-08T11:57:21;101296.28;;;18.61;73.08
48015;BME280;33780;51.034;7.120;2023-05-08T11:59:50;101291.03;;;18.60;73.15
48015;BME280;33780;51.034;7.120;2023-05-08T12:02:16;101286.63;;;18.59;73.03
48015;BME280;33780;51.034;7.120;2023-05-08T12:04:45;101290.38;;;18.58;73.08
48015;BME280;33780;51.034;7.120;2023-05-08T12:07:11;101286.81;;;18.57;73.25
48015;BME280;33780;51.034;7.120;2023-05-08T12:09:36;101289.53;;;18.57;73.09
48015;BME280;33780;51.034;7.120;2023-05-08T12:12:02;101282.56;;;18.55;72.97
48015;BME280;33780;51.034;7.120;2023-05-08T12:14:27;101283.59;;;18.54;73.06
48015;BME280;33780;51.034;7.120;2023-05-08T12:16:53;101281.91;;;18.53;73.35
48015;BME280;33780;51.034;7.120;2023-05-08T12:19:18;101282.94;;;18.52;73.46
48015;BME280;33780;51.034;7.120;2023-05-08T12:21:47;101283.94;;;18.51;73.47
48015;BME280;33780;51.034;7.120;2023-05-08T12:24:13;101289.19;;;18.52;73.52
48015;BME280;33780;51.034;7.120;2023-05-08T12:26:40;101292.56;;;18.54;73.49
48015;BME280;33780;51.034;7.120;2023-05-08T12:29:06;101293.94;;;18.58;73.73
48015;BME280;33780;51.034;7.120;2023-05-08T12:31:36;101289.72;;;18.64;73.75
48015;BME280;33780;51.034;7.120;2023-05-08T12:34:03;101295.66;;;18.67;73.80
48015;BME280;33780;51.034;7.120;2023-05-08T12:36:35;101295.16;;;18.72;73.89
48015;BME280;33780;51.034;7.120;2023-05-08T12:39:13;101292.75;;;18.77;73.42
48015;BME280;33780;51.034;7.120;2023-05-08T12:41:49;101291.38;;;18.81;73.53
48015;BME280;33780;51.034;7.120;2023-05-08T12:44:22;101287.16;;;18.87;73.54
48015;BME280;33780;51.034;7.120;2023-05-08T12:46:50;101282.91;;;18.92;73.44
48015;BME280;33780;51.034;7.120;2023-05-08T12:49:33;101286.97;;;18.96;73.49
48015;BME280;33780;51.034;7.120;2023-05-08T12:52:05;101284.75;;;19.00;73.58
48015;BME280;33780;51.034;7.120;2023-05-08T12:54:36;101277.13;;;19.04;73.36
48015;BME280;33780;51.034;7.120;2023-05-08T12:57:12;101280.34;;;19.07;73.30
48015;BME280;33780;51.034;7.120;2023-05-08T12:59:38;101279.16;;;19.10;72.93
48015;BME280;33780;51.034;7.120;2023-05-08T13:02:14;101275.41;;;19.11;73.01
48015;BME280;33780;51.034;7.120;2023-05-08T13:04:40;101270.81;;;19.11;72.98
48015;BME280;33780;51.034;7.120;2023-05-08T13:07:05;101268.13;;;19.11;72.72
48015;BME280;33780;51.034;7.120;2023-05-08T13:09:30;101277.28;;;19.10;71.96
48015;BME280;33780;51.034;7.120;2023-05-08T13:11:56;101274.91;;;19.07;72.35
48015;BME280;33780;51.034;7.120;2023-05-08T13:14:21;101270.69;;;19.05;72.58
48015;BME280;33780;51.034;7.120;2023-05-08T13:16:46;101277.81;;;19.06;72.31
48015;BME280;33780;51.034;7.120;2023-05-08T13:19:13;101267.13;;;19.04;72.08
48015;BME280;33780;51.034;7.120;2023-05-08T13:21:40;101265.44;;;19.03;72.44
48015;BME280;33780;51.034;7.120;2023-05-08T13:24:05;101274.41;;;19.04;72.22
48015;BME280;33780;51.034;7.120;2023-05-08T13:26:31;101269.97;;;19.02;72.17
48015;BME280;33780;51.034;7.120;2023-05-08T13:28:56;101270.69;;;19.05;72.27
48015;BME280;33780;51.034;7.120;2023-05-08T13:31:21;101257.13;;;19.05;71.96
48015;BME280;33780;51.034;7.120;2023-05-08T13:33:47;101259.66;;;19.06;71.79
48015;BME280;33780;51.034;7.120;2023-05-08T13:36:12;101249.47;;;19.08;72.41
48015;BME280;33780;51.034;7.120;2023-05-08T13:38:37;101254.72;;;19.10;72.13
48015;BME280;33780;51.034;7.120;2023-05-08T13:41:03;101253.69;;;19.11;72.09
48015;BME280;33780;51.034;7.120;2023-05-08T13:43:28;101251.66;;;19.13;72.03
48015;BME280;33780;51.034;7.120;2023-05-08T13:45:53;101237.91;;;19.14;71.85
48015;BME280;33780;51.034;7.120;2023-05-08T13:48:19;101234.84;;;19.17;71.59
48015;BME280;33780;51.034;7.120;2023-05-08T13:50:44;101230.25;;;19.18;71.92
48015;BME280;33780;51.034;7.120;2023-05-08T13:53:09;101231.97;;;19.19;71.77